Time;durP1;ratioP1;P1;durP2;ratioP2;P2;SDS_P1;SDS_P2;PMS_P1;PMS_P2;Temp;Humidity;BMP_temperature;BMP_pressure;BME280_temperature;BME280_humidity;BME280_pressure;Samples;Min_cycle;Max_cycle;Signal;HPM_P1;HPM_P2
2022/06/01 00:01:51;;;;;;;7.72;5.85;;;17.30;43.70;;;;;;5094099;28;20578;-38
2022/06/01 00:04:18;;;;;;;6.45;4.97;;;17.30;43.50;;;;;;5094185;28;20164;-37
2022/06/01 00:06:44;;;;;;;6.07;4.75;;;17.20;43.60;;;;;;5094143;28;20172;-37
2022/06/01 00:09:10;;;;;;;6.13;5.33;;;17.20;43.50;;;;;;5094273;28;20196;-37
2022/06/01 00:11:36;;;;;;;5.70;4.07;;;17.20;43.30;;;;;;5093938;28;20188;-37
2022/06/01 00:14:02;;;;;;;7.33;4.47;;;17.10;43.40;;;;;;5093892;28;20251;-38
2022/06/01 00:16:28;;;;;;;6.10;4.20;;;17.10;43.30;;;;;;5094063;28;20289;-36
2022/06/01 00:18:54;;;;;;;5.43;4.37;;;17.00;43.30;;;;;;5093909;28;20270;-37
2022/06/01 00:21:20;;;;;;;5.10;4.50;;;16.90;43.40;;;;;;5093821;28;20195;-38
2022/06/01 00:23:46;;;;;;;5.57;4.97;;;16.90;43.40;;;;;;5093888;28;20406;-37
2022/06/01 00:26:11;;;;;;;9.60;4.90;;;16.80;43.50;;;;;;5093598;28;20405;-38
2022/06/01 00:28:37;;;;;;;5.73;5.13;;;16.80;43.70;;;;;;5093594;28;20200;-38
2022/06/01 00:31:03;;;;;;;6.23;4.97;;;16.70;43.60;;;;;;5093277;28;20528;-37
2022/06/01 00:33:29;;;;;;;5.47;4.90;;;16.70;43.60;;;;;;5093732;28;20180;-37
2022/06/01 00:35:55;;;;;;;6.50;5.15;;;16.70;43.70;;;;;;5093502;28;20259;-37
2022/06/01 00:38:21;;;;;;;7.40;5.27;;;16.70;44.50;;;;;;5093662;28;20263;-37
2022/06/01 00:40:48;;;;;;;6.83;5.37;;;16.60;43.70;;;;;;5093447;28;20773;-37
2022/06/01 00:43:23;;;;;;;6.95;6.13;;;16.60;43.80;;;;;;5093662;28;20195;-37
2022/06/01 00:45:49;;;;;;;6.80;6.10;;;16.60;43.90;;;;;;5093528;28;20511;-37
2022/06/01 00:48:15;;;;;;;6.70;5.80;;;16.60;44.10;;;;;;5093221;28;20215;-36
2022/06/01 00:50:43;;;;;;;5.30;4.80;;;16.50;43.90;;;;;;5093608;28;20698;-38
2022/06/01 00:53:17;;;;;;;6.13;4.97;;;16.50;43.90;;;;;;5093049;28;20298;-37
2022/06/01 00:55:50;;;;;;;6.25;5.28;;;16.50;43.90;;;;;;5093123;28;20628;-36
2022/06/01 00:58:45;;;;;;;7.05;5.20;;;16.50;43.80;;;;;;5093158;28;20217;-37
2022/06/01 01:01:14;;;;;;;7.57;5.80;;;16.50;43.80;;;;;;5080022;28;20214;-36
2022/06/01 01:03:42;;;;;;;9.23;6.13;;;16.50;44.00;;;;;;5093036;28;20203;-37
2022/06/01 01:06:17;;;;;;;6.57;5.32;;;16.40;44.00;;;;;;5093041;28;20174;-37
2022/06/01 01:08:46;;;;;;;6.40;5.80;;;16.40;43.80;;;;;;5092876;28;20191;-37
2022/06/01 01:11:13;;;;;;;5.85;5.25;;;16.40;43.90;;;;;;5092778;28;20179;-37
2022/06/01 01:13:45;;;;;;;6.65;6.05;;;16.40;44.00;;;;;;5092855;28;20186;-37
2022/06/01 01:16:11;;;;;;;6.15;5.55;;;16.40;44.00;;;;;;5092585;28;20365;-38
2022/06/01 01:18:39;;;;;;;7.65;6.13;;;16.30;44.10;;;;;;5092704;28;20251;-38
2022/06/01 01:21:18;;;;;;;8.60;6.07;;;16.30;44.10;;;;;;5092942;28;20233;-37
2022/06/01 01:24:09;;;;;;;6.35;4.85;;;16.30;44.00;;;;;;5093055;28;20170;-38
2022/06/01 01:26:36;;;;;;;6.55;5.90;;;16.20;43.90;;;;;;5092450;28;20180;-38
2022/06/01 01:29:09;;;;;;;6.57;5.65;;;16.20;44.00;;;;;;5092749;28;20204;-37
2022/06/01 01:31:35;;;;;;;7.05;6.35;;;16.20;43.90;;;;;;5092498;28;20718;-38
2022/06/01 01:34:02;;;;;;;5.97;5.30;;;17.50;45.50;;;;;;5092506;28;20272;-38
2022/06/01 01:36:40;;;;;;;6.78;5.20;;;16.10;43.90;;;;;;5092497;28;20630;-37
2022/06/01 01:39:09;;;;;;;6.55;5.60;;;16.10;43.80;;;;;;5092420;28;20179;-38
2022/06/01 01:41:44;;;;;;;7.03;5.75;;;16.10;44.00;;;;;;5091769;28;20238;-37
2022/06/01 01:44:31;;;;;;;5.95;5.35;;;16.00;44.50;;;;;;5092420;28;20179;-36
2022/06/01 01:46:58;;;;;;;6.05;4.60;;;16.00;43.70;;;;;;5092586;28;20228;-38
2022/06/01 01:49:30;;;;;;;8.15;5.43;;;16.00;44.40;;;;;;5092474;28;20211;-37
2022/06/01 01:52:00;;;;;;;7.55;6.22;;;15.90;43.70;;;;;;5092250;28;20302;-37
2022/06/01 01:55:04;;;;;;;6.07;5.47;;;15.90;43.60;;;;;;5092159;28;20192;-37
2022/06/01 01:57:36;;;;;;;6.13;5.55;;;15.90;43.60;;;;;;5092243;28;20195;-38
2022/06/01 02:00:14;;;;;;;7.45;5.93;;;15.90;43.80;;;;;;5092247;28;20581;-38
2022/06/01 02:02:54;;;;;;;8.40;6.85;;;15.80;43.70;;;;;;5092128;28;20566;-37
2022/06/01 02:06:05;;;;;;;9.40;7.18;;;15.80;44.10;;;;;;5092104;28;20239;-38
2022/06/01 02:08:49;;;;;;;8.02;6.28;;;15.80;44.10;;;;;;5092149;28;20590;-37
2022/06/01 02:14:29;;;;;;;7.60;6.88;;;15.70;44.40;;;;;;5092326;28;20565;-36
2022/06/01 02:17:08;;;;;;;9.65;7.53;;;15.60;44.30;;;;;;5091974;28;20563;-37
2022/06/01 02:19:52;;;;;;;8.95;7.28;;;15.60;44.20;;;;;;5092127;28;20569;-38
2022/06/01 02:22:18;;;;;;;7.00;6.28;;;15.60;44.50;;;;;;5092103;28;20191;-36
2022/06/01 02:24:45;;;;;;;7.63;5.97;;;15.60;44.60;;;;;;5091867;28;20174;-38
2022/06/01 02:27:13;;;;;;;7.57;6.88;;;15.60;44.60;;;;;;5091794;28;20596;-37
2022/06/01 02:29:54;;;;;;;11.98;8.10;;;15.60;44.50;;;;;;5091957;28;20172;-38
2022/06/01 02:32:22;;;;;;;9.57;7.10;;;15.60;44.70;;;;;;5091938;28;20264;-36
2022/06/01 02:34:49;;;;;;;9.50;6.68;;;15.50;44.20;;;;;;5091881;28;20754;-37
2022/06/01 02:37:17;;;;;;;8.63;7.65;;;15.60;44.40;;;;;;5092203;28;20192;-37
2022/06/01 02:39:52;;;;;;;9.52;6.38;;;15.60;44.60;;;;;;5092283;28;20179;-37
2022/06/01 02:42:28;;;;;;;9.77;7.45;;;15.60;44.50;;;;;;5091860;28;20815;-38
2022/06/01 02:45:09;;;;;;;9.18;8.20;;;15.60;44.60;;;;;;5091954;28;20233;-36
2022/06/01 02:47:38;;;;;;;8.25;6.95;;;15.50;44.40;;;;;;5091679;28;20192;-37
2022/06/01 02:50:06;;;;;;;9.70;7.90;;;15.50;44.40;;;;;;5091753;28;20196;-37
2022/06/01 02:52:32;;;;;;;7.50;6.15;;;15.50;44.40;;;;;;5091636;28;20245;-36
2022/06/01 02:54:58;;;;;;;8.80;7.70;;;15.40;44.30;;;;;;5095611;28;20176;-36
2022/06/01 02:57:24;;;;;;;10.40;7.00;;;15.40;44.30;;;;;;5095561;28;20175;-37
2022/06/01 02:59:50;;;;;;;12.00;8.23;;;15.40;44.30;;;;;;5095695;28;20256;-38
2022/06/01 03:02:17;;;;;;;9.90;7.75;;;15.40;44.40;;;;;;5095566;28;20425;-37
2022/06/01 03:04:44;;;;;;;7.68;6.15;;;15.40;44.40;;;;;;5095596;28;20233;-37
2022/06/01 03:07:11;;;;;;;8.55;7.05;;;15.30;44.80;;;;;;5095460;28;20581;-37
2022/06/01 03:09:37;;;;;;;8.23;7.18;;;15.30;44.80;;;;;;5095405;28;20191;-37
2022/06/01 03:12:05;;;;;;;8.50;7.18;;;15.30;44.70;;;;;;5101885;28;20262;-37
2022/06/01 03:14:32;;;;;;;11.63;8.02;;;15.30;44.60;;;;;;5100773;28;20203;-37
2022/06/01 03:16:58;;;;;;;11.95;7.50;;;15.30;44.70;;;;;;5101540;28;20172;-37
2022/06/01 03:19:24;;;;;;;9.63;8.73;;;15.30;44.60;;;;;;5097095;28;20179;-37
2022/06/01 03:21:51;;;;;;;9.23;7.13;;;15.30;44.70;;;;;;5095254;28;20523;-37
2022/06/01 03:24:17;;;;;;;8.80;6.65;;;15.30;44.60;;;;;;5095068;28;20200;-38
2022/06/01 03:26:43;;;;;;;9.95;7.70;;;15.30;44.70;;;;;;5094930;28;20176;-36
2022/06/01 03:29:09;;;;;;;7.47;6.78;;;15.30;44.70;;;;;;5094787;28;20320;-36
2022/06/01 03:31:35;;;;;;;8.45;6.93;;;15.30;44.70;;;;;;5094706;28;20237;-37
2022/06/01 03:34:01;;;;;;;8.77;7.05;;;15.30;44.50;;;;;;5094706;28;20200;-37
2022/06/01 03:36:27;;;;;;;8.23;7.07;;;15.30;44.70;;;;;;5094802;28;20257;-36
2022/06/01 03:38:53;;;;;;;10.33;8.40;;;15.30;44.70;;;;;;5094766;28;20658;-37
2022/06/01 03:41:19;;;;;;;7.30;6.57;;;15.30;44.70;;;;;;5094797;28;20192;-38
2022/06/01 03:46:32;;;;;;;8.88;7.00;;;15.30;45.10;;;;;;5094534;28;20241;-36
2022/06/01 03:48:58;;;;;;;9.48;7.93;;;15.40;44.80;;;;;;5094422;28;20581;-37
2022/06/01 03:51:26;;;;;;;8.83;7.93;;;15.40;45.00;;;;;;5094414;28;20207;-37
2022/06/01 03:53:55;;;;;;;9.48;7.40;;;15.40;44.90;;;;;;5094518;28;20198;-37
2022/06/01 03:56:22;;;;;;;10.25;7.93;;;15.40;44.90;;;;;;5094296;28;20178;-38
2022/06/01 03:58:50;;;;;;;9.23;6.63;;;15.50;45.00;;;;;;5094190;28;20263;-37
2022/06/01 04:01:17;;;;;;;9.25;6.97;;;15.60;44.90;;;;;;5094283;28;20214;-36
2022/06/01 04:03:43;;;;;;;9.70;8.10;;;15.60;45.10;;;;;;5094402;28;20182;-37
2022/06/01 04:06:09;;;;;;;10.40;7.30;;;15.70;45.00;;;;;;5093259;28;20251;-37
2022/06/01 04:08:35;;;;;;;9.53;8.00;;;15.70;45.00;;;;;;5094043;28;20306;-36
2022/06/01 04:11:00;;;;;;;10.97;7.40;;;15.80;45.20;;;;;;5093916;28;20172;-37
2022/06/01 04:13:27;;;;;;;9.80;7.97;;;15.80;45.30;;;;;;5093991;28;20406;-38
2022/06/01 04:15:53;;;;;;;11.38;7.90;;;15.90;45.40;;;;;;5094120;28;20493;-37
2022/06/01 04:18:31;;;;;;;9.10;8.10;;;15.90;45.50;;;;;;5093953;28;20198;-38
2022/06/01 04:20:57;;;;;;;10.90;7.82;;;16.00;45.50;;;;;;5093810;28;20417;-37
2022/06/01 04:23:22;;;;;;;9.68;7.03;;;16.10;45.80;;;;;;5093809;28;20201;-37
2022/06/01 04:25:48;;;;;;;12.97;10.13;;;16.20;46.10;;;;;;5093940;28;20175;-36
2022/06/01 04:28:14;;;;;;;12.20;8.77;;;16.20;46.00;;;;;;5093583;28;20261;-37
2022/06/01 04:30:40;;;;;;;12.90;9.25;;;16.20;47.10;;;;;;5093912;28;20168;-36
2022/06/01 04:33:06;;;;;;;11.70;9.63;;;16.20;46.40;;;;;;5093848;28;20202;-37
2022/06/01 04:35:32;;;;;;;12.60;9.10;;;16.20;47.40;;;;;;5093507;28;20425;-37
2022/06/01 04:38:12;;;;;;;10.77;8.30;;;16.30;46.60;;;;;;5093621;28;20171;-37
2022/06/01 04:40:40;;;;;;;14.73;9.50;;;16.40;46.40;;;;;;5093522;28;20873;-37
2022/06/01 04:43:06;;;;;;;9.50;8.50;;;16.50;46.50;;;;;;5093623;28;20204;-38
2022/06/01 04:45:32;;;;;;;11.20;9.60;;;16.50;46.50;;;;;;5093585;28;20164;-37
2022/06/01 04:47:57;;;;;;;10.57;9.20;;;16.60;46.20;;;;;;5093191;28;20977;-38
2022/06/01 04:50:23;;;;;;;12.17;9.03;;;16.70;46.20;;;;;;5093260;28;20263;-37
2022/06/01 04:52:49;;;;;;;11.30;9.30;;;16.70;45.90;;;;;;5093412;28;20192;-36
2022/06/01 04:55:14;;;;;;;13.47;10.80;;;16.70;46.00;;;;;;5093085;28;20209;-38
2022/06/01 04:57:40;;;;;;;13.43;10.77;;;16.70;46.00;;;;;;5093473;28;20414;-37
2022/06/01 05:00:09;;;;;;;14.00;10.00;;;16.80;45.90;;;;;;5093434;28;20540;-37
2022/06/01 05:02:34;;;;;;;12.07;10.30;;;16.70;46.10;;;;;;5093382;28;20207;-37
2022/06/01 05:05:00;;;;;;;11.33;9.97;;;16.70;46.20;;;;;;5093137;28;20176;-38
2022/06/01 05:07:26;;;;;;;10.50;9.30;;;16.70;46.50;;;;;;5093000;28;20405;-38
2022/06/01 05:09:52;;;;;;;11.10;8.67;;;16.70;46.50;;;;;;5093119;28;20398;-38
2022/06/01 05:12:17;;;;;;;10.57;8.83;;;16.70;46.40;;;;;;5093039;28;20599;-37
2022/06/01 05:14:43;;;;;;;13.17;10.30;;;16.80;46.30;;;;;;5092771;28;20164;-37
2022/06/01 05:17:09;;;;;;;14.93;10.20;;;16.80;46.30;;;;;;5092682;28;20164;-37
2022/06/01 05:19:35;;;;;;;13.80;9.83;;;16.90;46.30;;;;;;5092755;28;20172;-38
2022/06/01 05:22:00;;;;;;;11.20;9.43;;;17.00;46.20;;;;;;5092669;28;20196;-37
2022/06/01 05:24:26;;;;;;;12.60;9.80;;;17.20;46.20;;;;;;5092550;28;20425;-37
2022/06/01 05:26:52;;;;;;;10.30;8.37;;;17.30;46.30;;;;;;5092564;28;20172;-38
2022/06/01 05:29:17;;;;;;;11.97;8.80;;;17.40;46.20;;;;;;5093226;28;20195;-37
2022/06/01 05:31:44;;;;;;;12.80;9.27;;;17.50;45.90;;;;;;5092519;28;20207;-38
2022/06/01 05:34:10;;;;;;;13.95;9.95;;;17.50;45.70;;;;;;5092615;28;20262;-36
2022/06/01 05:36:36;;;;;;;14.52;9.65;;;17.50;45.70;;;;;;5092756;28;20229;-37
2022/06/01 05:39:03;;;;;;;12.93;9.75;;;17.60;45.80;;;;;;5092571;28;20184;-38
2022/06/01 05:41:29;;;;;;;12.00;9.35;;;17.70;45.80;;;;;;5092314;28;20204;-38
2022/06/01 05:43:55;;;;;;;13.13;10.50;;;17.70;46.40;;;;;;5092375;28;20160;-38
2022/06/01 05:46:24;;;;;;;13.50;10.77;;;17.80;45.50;;;;;;5092558;28;20229;-39
2022/06/01 05:48:50;;;;;;;12.73;9.63;;;17.80;45.40;;;;;;5092468;28;20203;-38
2022/06/01 05:51:16;;;;;;;12.47;9.97;;;17.80;45.70;;;;;;5092327;28;20249;-39
2022/06/01 05:53:41;;;;;;;12.10;9.90;;;17.80;45.50;;;;;;5092473;28;20160;-39
2022/06/01 05:56:07;;;;;;;11.33;10.00;;;17.90;45.90;;;;;;5092467;28;20171;-38
2022/06/01 05:58:33;;;;;;;9.60;8.30;;;18.00;45.60;;;;;;5092093;28;20168;-39
2022/06/01 06:01:06;;;;;;;14.70;9.87;;;18.10;45.80;;;;;;5092101;28;20180;-38
2022/06/01 06:03:33;;;;;;;12.52;9.85;;;18.20;45.40;;;;;;5092431;28;20444;-37
2022/06/01 06:06:12;;;;;;;12.40;10.35;;;18.30;45.40;;;;;;5092074;28;20190;-38
2022/06/01 06:08:40;;;;;;;12.38;9.32;;;18.50;45.30;;;;;;5092250;28;20195;-39
2022/06/01 06:11:06;;;;;;;10.50;9.40;;;18.60;44.80;;;;;;5092244;28;20176;-38
2022/06/01 06:13:36;;;;;;;10.63;7.60;;;18.60;44.70;;;;;;5092085;28;20536;-39
2022/06/01 06:16:03;;;;;;;13.05;7.45;;;18.70;45.50;;;;;;5092229;28;20214;-39
2022/06/01 06:18:29;;;;;;;9.90;7.95;;;18.90;44.70;;;;;;5092053;28;20597;-37
2022/06/01 06:20:54;;;;;;;10.97;8.10;;;19.00;44.50;;;;;;5092149;28;20211;-38
2022/06/01 06:23:21;;;;;;;10.07;8.20;;;19.10;43.70;;;;;;5092025;28;20176;-39
2022/06/01 06:25:47;;;;;;;7.63;6.85;;;19.20;42.70;;;;;;5092105;28;20175;-39
2022/06/01 06:28:13;;;;;;;8.47;7.20;;;19.20;43.20;;;;;;5093196;28;20200;-38
2022/06/01 06:30:39;;;;;;;10.38;7.95;;;19.20;43.30;;;;;;5096104;28;20747;-38
2022/06/01 06:33:06;;;;;;;7.05;6.25;;;19.30;42.90;;;;;;5096099;28;20191;-38
2022/06/01 06:35:33;;;;;;;9.63;7.25;;;19.40;43.10;;;;;;5096018;28;20182;-39
2022/06/01 06:37:59;;;;;;;9.65;6.40;;;19.50;43.60;;;;;;5095739;28;20180;-39
2022/06/01 06:40:25;;;;;;;6.40;5.32;;;19.60;42.90;;;;;;5095934;28;20180;-39
2022/06/01 06:42:52;;;;;;;5.30;4.60;;;19.70;42.50;;;;;;5095786;28;20198;-39
2022/06/01 06:45:19;;;;;;;9.50;5.90;;;19.80;42.60;;;;;;5095524;28;20451;-39
2022/06/01 06:47:45;;;;;;;5.57;4.78;;;19.90;42.80;;;;;;5095575;28;20191;-39
2022/06/01 06:50:13;;;;;;;5.50;5.00;;;20.00;42.60;;;;;;5095865;28;20497;-39
2022/06/01 06:52:39;;;;;;;3.70;3.28;;;20.10;42.10;;;;;;5095487;28;20204;-39
2022/06/01 06:55:06;;;;;;;3.88;3.40;;;20.20;41.90;;;;;;5095778;28;20177;-39
2022/06/01 06:57:32;;;;;;;4.32;3.88;;;20.30;42.00;;;;;;5095604;28;20206;-39
2022/06/01 06:59:58;;;;;;;5.33;3.77;;;20.40;42.00;;;;;;5095372;28;20219;-38
2022/06/01 07:02:24;;;;;;;4.97;3.60;;;20.50;42.10;;;;;;5095665;28;20430;-38
2022/06/01 07:04:49;;;;;;;3.73;3.13;;;20.60;41.60;;;;;;5095419;28;20202;-39
2022/06/01 07:07:15;;;;;;;4.43;2.90;;;20.70;41.60;;;;;;5095408;28;20338;-39
2022/06/01 07:09:41;;;;;;;3.07;2.77;;;20.80;41.20;;;;;;5095358;28;20207;-39
2022/06/01 07:12:08;;;;;;;3.50;2.88;;;20.90;41.60;;;;;;5095130;28;20213;-39
2022/06/01 07:14:33;;;;;;;2.63;2.13;;;21.10;41.40;;;;;;5094980;28;20179;-39
2022/06/01 07:17:00;;;;;;;3.63;2.10;;;21.20;41.00;;;;;;5095364;28;20164;-40
2022/06/01 07:19:27;;;;;;;2.95;2.40;;;21.30;40.30;;;;;;5095323;28;20179;-39
2022/06/01 07:21:53;;;;;;;3.63;2.97;;;21.40;40.00;;;;;;5094881;28;20690;-39
2022/06/01 07:24:19;;;;;;;3.53;2.50;;;21.50;40.20;;;;;;5095125;28;20202;-38
2022/06/01 07:26:46;;;;;;;2.60;2.10;;;21.60;40.10;;;;;;5094877;28;20703;-39
2022/06/01 07:29:14;;;;;;;4.40;2.25;;;21.80;40.00;;;;;;5094884;28;20829;-38
2022/06/01 07:31:41;;;;;;;3.78;2.25;;;21.80;39.50;;;;;;5095409;28;20196;-39
2022/06/01 07:34:07;;;;;;;3.03;1.92;;;21.90;39.00;;;;;;5095409;28;20172;-40
2022/06/01 07:36:34;;;;;;;3.50;2.07;;;21.90;39.00;;;;;;5095496;28;20642;-38
2022/06/01 07:44:22;;;;;;;4.03;2.40;;;22.10;38.80;;;;;;5094587;28;20209;-38
2022/06/01 07:46:48;;;;;;;2.47;1.83;;;22.20;38.30;;;;;;5094885;28;20180;-39
2022/06/01 07:49:15;;;;;;;4.03;2.13;;;22.30;37.70;;;;;;5094414;28;20864;-39
2022/06/01 07:51:41;;;;;;;2.40;1.77;;;22.40;38.10;;;;;;5094443;28;20460;-39
2022/06/01 07:54:07;;;;;;;3.47;2.10;;;22.40;38.30;;;;;;5094417;28;20386;-39
2022/06/01 07:56:33;;;;;;;2.80;1.92;;;22.50;37.60;;;;;;5094381;28;20204;-39
2022/06/01 07:58:59;;;;;;;2.70;1.73;;;22.60;37.70;;;;;;5094430;28;20214;-39
2022/06/01 08:01:25;;;;;;;2.57;2.20;;;22.70;37.00;;;;;;5094324;28;20458;-39
2022/06/01 08:03:59;;;;;;;4.53;2.27;;;22.70;37.50;;;;;;5094187;28;20414;-39
2022/06/01 08:06:26;;;;;;;4.60;2.10;;;22.70;37.00;;;;;;5094104;28;20794;-39
2022/06/01 08:08:53;;;;;;;3.97;2.23;;;22.80;37.00;;;;;;5094027;28;20929;-39
2022/06/01 08:11:19;;;;;;;3.70;1.83;;;22.90;37.10;;;;;;5092656;28;20434;-38
2022/06/01 08:13:45;;;;;;;2.93;2.03;;;23.00;37.50;;;;;;5094342;28;20410;-38
2022/06/01 08:16:11;;;;;;;3.03;2.70;;;23.10;37.40;;;;;;5093928;28;20410;-39
2022/06/01 08:18:37;;;;;;;3.13;2.33;;;23.20;37.50;;;;;;5093933;28;20640;-38
2022/06/01 08:21:03;;;;;;;2.70;2.07;;;23.30;37.40;;;;;;5093744;28;20420;-39
2022/06/01 08:23:31;;;;;;;3.00;2.30;;;23.40;35.90;;;;;;5094225;28;20463;-38
2022/06/01 08:25:58;;;;;;;3.30;2.27;;;23.50;36.70;;;;;;5093860;28;20414;-38
2022/06/01 08:28:24;;;;;;;2.20;1.87;;;23.50;36.60;;;;;;5093868;28;20454;-38
2022/06/01 08:30:51;;;;;;;3.03;1.93;;;23.60;36.50;;;;;;5093731;28;20414;-39
2022/06/01 08:33:17;;;;;;;3.53;2.43;;;23.70;36.30;;;;;;5093811;28;20913;-38
2022/06/01 08:35:47;;;;;;;3.40;2.57;;;23.80;35.60;;;;;;5093652;28;20444;-38
2022/06/01 08:38:13;;;;;;;4.20;2.67;;;23.80;35.60;;;;;;5093699;28;20406;-38
2022/06/01 08:40:44;;;;;;;2.30;2.10;;;23.90;34.90;;;;;;5093814;28;20413;-38
2022/06/01 08:43:13;;;;;;;2.50;1.90;;;23.90;35.40;;;;;;5093810;28;20426;-38
2022/06/01 08:45:42;;;;;;;3.07;1.90;;;24.00;35.40;;;;;;5093758;28;20421;-39
2022/06/01 08:48:15;;;;;;;3.77;2.40;;;24.10;35.50;;;;;;5093119;28;20457;-39
2022/06/01 08:50:41;;;;;;;3.90;1.70;;;24.10;35.80;;;;;;5093060;28;20444;-39
2022/06/01 08:53:08;;;;;;;2.93;1.90;;;24.20;35.30;;;;;;5093040;28;20456;-39
2022/06/01 08:56:09;;;;;;;2.83;2.13;;;24.30;35.00;;;;;;5093642;28;20477;-38
2022/06/01 08:59:06;;;;;;;2.37;1.77;;;24.40;33.30;;;;;;5093340;28;20390;-39
2022/06/01 09:01:45;;;;;;;2.73;1.90;;;24.40;33.80;;;;;;5093568;28;20437;-38
2022/06/01 09:04:49;;;;;;;2.00;1.40;;;24.50;33.80;;;;;;5092917;28;20452;-39
2022/06/01 09:07:44;;;;;;;2.70;1.83;;;24.40;31.50;;;;;;5030533;28;20483;-39
2022/06/01 09:10:43;;;;;;;1.90;1.47;;;24.40;33.30;;;;;;5027645;28;20555;-38
2022/06/01 09:13:24;;;;;;;2.27;1.50;;;24.50;32.90;;;;;;5030348;28;20424;-39
2022/06/01 09:15:59;;;;;;;2.10;1.60;;;24.60;33.20;;;;;;5030338;28;20951;-38
2022/06/01 09:18:37;;;;;;;2.90;2.07;;;24.70;33.20;;;;;;5030152;28;20443;-38
2022/06/01 09:23:47;;;;;;;3.13;1.40;;;24.60;30.10;;;;;;5030621;28;20384;-39
2022/06/01 09:28:44;;;;;;;2.63;1.43;;;24.40;30.90;;;;;;5035896;28;20228;-42
2022/06/01 09:31:14;;;;;;;1.50;0.90;;;24.30;31.50;;;;;;5052610;28;20432;-41
2022/06/01 09:33:40;;;;;;;2.60;1.33;;;24.10;30.50;;;;;;5052420;28;20431;-41
2022/06/01 09:36:08;;;;;;;2.27;1.20;;;24.00;29.30;;;;;;5052216;28;20858;-41
2022/06/01 09:38:52;;;;;;;1.80;1.00;;;23.90;30.20;;;;;;5032353;28;20240;-41
2022/06/01 09:41:24;;;;;;;3.60;1.70;;;23.90;30.40;;;;;;5032723;28;20394;-41
2022/06/01 09:44:01;;;;;;;3.80;1.60;;;24.00;31.80;;;;;;5032245;28;20908;-41
2022/06/01 09:46:38;;;;;;;2.00;1.47;;;24.10;31.60;;;;;;5032185;28;20398;-41
2022/06/01 09:49:27;;;;;;;2.90;1.80;;;24.20;31.60;;;;;;5032076;28;20448;-41
2022/06/01 09:52:12;;;;;;;2.40;1.67;;;24.40;32.00;;;;;;5032232;28;20400;-42
2022/06/01 09:54:44;;;;;;;5.00;2.33;;;24.60;31.50;;;;;;5032060;28;20452;-41
2022/06/01 09:57:31;;;;;;;1.80;1.10;;;24.80;31.80;;;;;;5032065;28;20459;-41
2022/06/01 10:08:26;;;;;;;2.10;1.23;;;25.10;30.30;;;;;;5032055;28;20475;-42
2022/06/01 10:11:01;;;;;;;2.83;1.83;;;25.10;29.80;;;;;;5032205;28;20504;-41
2022/06/01 10:13:33;;;;;;;2.27;1.50;;;25.00;30.00;;;;;;5031953;28;20907;-41
2022/06/01 10:16:06;;;;;;;2.80;1.97;;;25.00;30.40;;;;;;5031896;28;20772;-41
2022/06/01 10:18:34;;;;;;;2.87;1.57;;;25.00;28.00;;;;;;5031703;28;20776;-41
2022/06/01 10:21:16;;;;;;;3.73;2.00;;;24.90;29.60;;;;;;5031873;28;20411;-41
2022/06/01 10:23:56;;;;;;;3.03;1.80;;;24.80;29.50;;;;;;5031828;28;20419;-40
2022/06/01 10:26:51;;;;;;;2.40;1.47;;;24.70;29.80;;;;;;5031669;28;20403;-41
2022/06/01 10:29:30;;;;;;;2.70;1.40;;;24.60;30.60;;;;;;5029221;28;20569;-41
2022/06/01 10:32:03;;;;;;;2.43;1.67;;;24.70;30.60;;;;;;5032097;28;20768;-41
2022/06/01 10:34:45;;;;;;;2.70;1.80;;;24.70;30.40;;;;;;5031588;28;20756;-41
2022/06/01 10:37:19;;;;;;;2.40;1.40;;;24.70;30.00;;;;;;5031582;28;20428;-41
2022/06/01 10:39:48;;;;;;;1.93;1.47;;;24.90;30.40;;;;;;5031764;28;20411;-40
2022/06/01 10:43:16;;;;;;;2.30;1.20;;;25.00;29.80;;;;;;5031761;28;20409;-41
2022/06/01 10:45:14;;;;;;;3.90;2.53;;;25.30;29.90;;;;;;5031535;28;20417;-41
2022/06/01 10:47:58;;;;;;;3.10;2.00;;;25.60;29.50;;;;;;5031580;28;20424;-41
2022/06/01 10:50:32;;;;;;;2.43;1.20;;;25.70;27.90;;;;;;5031954;28;20397;-41
2022/06/01 10:53:30;;;;;;;3.97;1.37;;;25.80;27.20;;;;;;5031719;28;20397;-41
2022/06/01 10:55:57;;;;;;;2.10;1.37;;;25.90;27.90;;;;;;5031489;28;20405;-41
2022/06/01 10:58:25;;;;;;;1.70;1.10;;;25.90;27.40;;;;;;5031464;28;20462;-41
2022/06/01 11:01:17;;;;;;;2.20;1.30;;;25.90;26.30;;;;;;5031516;28;20492;-41
2022/06/01 11:03:54;;;;;;;1.97;1.00;;;26.10;27.60;;;;;;5031762;28;20393;-41
2022/06/01 11:06:45;;;;;;;1.70;1.10;;;26.20;27.80;;;;;;5031224;28;20400;-41
2022/06/01 11:09:35;;;;;;;2.50;1.43;;;26.30;26.40;;;;;;5031364;28;20492;-41
2022/06/01 11:12:17;;;;;;;2.27;1.77;;;26.30;27.30;;;;;;5031469;28;20795;-41
2022/06/01 11:15:10;;;;;;;2.57;1.47;;;26.30;26.60;;;;;;5033094;28;20409;-41
2022/06/01 11:17:49;;;;;;;2.90;2.50;;;26.30;26.80;;;;;;5034784;28;20511;-41
2022/06/01 11:21:00;;;;;;;2.10;1.50;;;26.40;27.30;;;;;;5035320;28;20400;-41
2022/06/01 11:23:33;;;;;;;1.87;1.33;;;26.50;27.30;;;;;;5030909;28;20527;-41
2022/06/01 11:26:27;;;;;;;2.20;1.53;;;26.50;25.70;;;;;;5034756;28;20458;-41
2022/06/01 11:29:12;;;;;;;1.70;0.90;;;26.60;26.40;;;;;;5034740;28;20505;-43
2022/06/01 11:31:40;;;;;;;1.60;1.07;;;26.70;26.20;;;;;;5035030;28;20412;-41
2022/06/01 11:34:15;;;;;;;2.10;1.37;;;26.70;23.80;;;;;;5034556;28;20423;-41
2022/06/01 11:37:00;;;;;;;1.83;1.27;;;26.70;25.10;;;;;;5034491;28;20424;-43
2022/06/01 11:39:37;;;;;;;2.23;1.47;;;26.80;25.50;;;;;;5034657;28;20409;-42
2022/06/01 11:42:16;;;;;;;2.23;1.67;;;26.90;25.40;;;;;;5034789;28;20413;-42
2022/06/01 11:44:52;;;;;;;2.10;1.40;;;26.90;24.20;;;;;;5034364;28;20394;-43
2022/06/01 11:47:21;;;;;;;2.10;1.40;;;26.90;25.00;;;;;;5034690;28;20818;-43
2022/06/01 11:50:21;;;;;;;2.53;1.97;;;27.10;25.60;;;;;;5034343;28;20479;-43
2022/06/01 11:52:58;;;;;;;1.87;1.20;;;27.20;26.20;;;;;;5034521;28;20492;-43
2022/06/01 11:55:36;;;;;;;2.23;1.57;;;27.30;26.00;;;;;;5034051;28;20400;-43
2022/06/01 11:58:05;;;;;;;3.60;1.87;;;27.40;24.40;;;;;;5034070;28;20438;-42
2022/06/01 12:00:35;;;;;;;2.40;1.70;;;27.40;24.80;;;;;;5034057;28;20968;-42
2022/06/01 12:03:34;;;;;;;2.30;1.60;;;27.40;26.10;;;;;;5033771;28;20479;-42
2022/06/01 12:06:09;;;;;;;2.63;1.57;;;27.50;25.80;;;;;;5034119;28;20450;-42
2022/06/01 12:08:53;;;;;;;1.90;1.30;;;27.50;25.10;;;;;;5034157;28;20513;-42
2022/06/01 12:11:46;;;;;;;1.80;1.40;;;27.50;24.00;;;;;;5034005;28;20389;-42
2022/06/01 12:14:39;;;;;;;2.20;1.23;;;27.50;25.00;;;;;;5033823;28;20409;-42
2022/06/01 12:17:17;;;;;;;3.03;1.70;;;27.50;24.60;;;;;;5030624;28;20451;-42
2022/06/01 12:19:51;;;;;;;1.83;1.30;;;27.60;25.10;;;;;;5033711;28;20466;-43
2022/06/01 12:28:48;;;;;;;2.73;1.97;;;28.00;25.50;;;;;;5033376;28;20526;-42
2022/06/01 12:31:29;;;;;;;2.23;1.60;;;28.00;25.00;;;;;;5033635;28;20445;-43
2022/06/01 12:34:01;;;;;;;3.47;1.40;;;27.90;22.90;;;;;;5033540;28;20444;-43
2022/06/01 12:36:30;;;;;;;3.03;1.43;;;27.60;23.40;;;;;;5033414;28;20420;-43
2022/06/01 12:38:56;;;;;;;2.83;1.40;;;27.50;23.60;;;;;;5033391;28;20416;-43
2022/06/01 12:41:27;;;;;;;3.60;1.80;;;27.30;24.00;;;;;;5033684;28;20416;-42
2022/06/01 12:43:57;;;;;;;1.97;1.20;;;27.20;23.30;;;;;;5033430;28;20413;-42
2022/06/01 12:46:30;;;;;;;2.80;1.70;;;27.00;24.10;;;;;;5033203;28;20417;-42
2022/06/01 12:49:35;;;;;;;2.17;1.20;;;26.90;24.00;;;;;;5033124;28;20831;-42
2022/06/01 12:52:15;;;;;;;2.20;1.40;;;27.10;25.30;;;;;;5033504;28;20461;-42
2022/06/01 12:55:03;;;;;;;1.80;1.20;;;27.30;23.80;;;;;;5032995;28;20393;-42
2022/06/01 12:57:47;;;;;;;1.90;1.23;;;27.40;23.60;;;;;;5032183;28;20432;-42
2022/06/01 13:00:28;;;;;;;2.50;1.40;;;27.50;23.80;;;;;;5032929;28;20396;-42
2022/06/01 13:02:54;;;;;;;1.73;1.10;;;27.70;23.00;;;;;;5032938;28;20409;-42
2022/06/01 13:05:22;;;;;;;2.23;1.30;;;27.80;22.10;;;;;;5032765;28;20411;-41
2022/06/01 13:07:53;;;;;;;2.17;1.20;;;27.70;23.20;;;;;;5032990;28;20452;-42
2022/06/01 13:10:22;;;;;;;3.53;1.67;;;27.70;23.20;;;;;;5032898;28;20407;-42
2022/06/01 13:12:48;;;;;;;2.53;1.73;;;27.50;23.50;;;;;;5032865;28;20401;-42
2022/06/01 13:15:22;;;;;;;5.93;2.10;;;27.50;23.90;;;;;;5032589;28;20413;-42
2022/06/01 13:17:54;;;;;;;2.70;1.70;;;27.30;23.40;;;;;;5032906;28;20197;-42
2022/06/01 13:20:24;;;;;;;1.80;1.13;;;27.20;24.60;;;;;;5033052;28;20404;-41
2022/06/01 13:22:53;;;;;;;2.80;1.60;;;27.10;24.60;;;;;;5032555;28;20444;-42
2022/06/01 13:25:28;;;;;;;1.80;1.10;;;27.10;24.40;;;;;;5032428;28;20963;-42
2022/06/01 13:27:54;;;;;;;2.23;1.40;;;27.00;24.10;;;;;;5032282;28;20475;-41
2022/06/01 13:30:20;;;;;;;3.10;2.80;;;26.90;23.80;;;;;;5032658;28;20413;-43
2022/06/01 13:32:50;;;;;;;2.77;1.10;;;26.80;24.00;;;;;;5032466;28;20443;-43
2022/06/01 13:35:32;;;;;;;1.80;1.30;;;26.90;24.10;;;;;;5032592;28;20427;-43
2022/06/01 13:37:59;;;;;;;3.67;1.57;;;27.00;25.50;;;;;;5032482;28;20482;-43
2022/06/01 13:40:30;;;;;;;1.97;1.37;;;27.20;26.00;;;;;;5032536;28;20409;-43